sensor_id;sensor_type;location;lat;lon;timestamp;temperature;humidity
52459;DHT22;38372;52.902;6.024;2022-09-16T00:01:35;11.30;99.90
52459;DHT22;38372;52.902;6.024;2022-09-16T00:04:01;11.30;99.90
52459;DHT22;38372;52.902;6.024;2022-09-16T00:06:28;11.40;99.90
52459;DHT22;38372;52.902;6.024;2022-09-16T00:08:56;11.40;99.90
52459;DHT22;38372;52.902;6.024;2022-09-16T00:11:23;11.40;99.90
52459;DHT22;38372;52.902;6.024;2022-09-16T00:13:48;11.40;99.90
52459;DHT22;38372;52.902;6.024;2022-09-16T00:16:22;11.40;99.90
52459;DHT22;38372;52.902;6.024;2022-09-16T00:18:52;11.40;99.90
52459;DHT22;38372;52.902;6.024;2022-09-16T00:21:19;11.40;99.90
52459;DHT22;38372;52.902;6.024;2022-09-16T00:23:44;11.40;99.90
52459;DHT22;38372;52.902;6.024;2022-09-16T00:26:10;11.40;99.90
52459;DHT22;38372;52.902;6.024;2022-09-16T00:28:36;11.40;99.90
52459;DHT22;38372;52.902;6.024;2022-09-16T00:31:02;11.40;99.90
52459;DHT22;38372;52.902;6.024;2022-09-16T00:33:28;11.40;99.90
52459;DHT22;38372;52.902;6.024;2022-09-16T00:36:11;11.40;99.90
52459;DHT22;38372;52.902;6.024;2022-09-16T00:38:37;11.40;99.90
52459;DHT22;38372;52.902;6.024;2022-09-16T00:41:04;11.30;99.90
52459;DHT22;38372;52.902;6.024;2022-09-16T00:43:50;11.30;99.90
52459;DHT22;38372;52.902;6.024;2022-09-16T00:46:21;11.20;99.90
52459;DHT22;38372;52.902;6.024;2022-09-16T00:48:48;11.10;99.90
52459;DHT22;38372;52.902;6.024;2022-09-16T00:51:15;11.10;99.90
52459;DHT22;38372;52.902;6.024;2022-09-16T00:53:46;11.10;99.90
52459;DHT22;38372;52.902;6.024;2022-09-16T00:56:17;11.00;99.90
52459;DHT22;38372;52.902;6.024;2022-09-16T00:59:10;11.10;99.90
52459;DHT22;38372;52.902;6.024;2022-09-16T01:01:39;11.10;99.90
52459;DHT22;38372;52.902;6.024;2022-09-16T01:04:14;11.10;99.90
52459;DHT22;38372;52.902;6.024;2022-09-16T01:06:40;11.10;99.90
52459;DHT22;38372;52.902;6.024;2022-09-16T01:09:06;11.10;99.90
52459;DHT22;38372;52.902;6.024;2022-09-16T01:11:32;11.00;99.90
52459;DHT22;38372;52.902;6.024;2022-09-16T01:13:59;10.90;99.90
52459;DHT22;38372;52.902;6.024;2022-09-16T01:17:07;10.80;99.90
52459;DHT22;38372;52.902;6.024;2022-09-16T01:25:44;10.60;99.90
52459;DHT22;38372;52.902;6.024;2022-09-16T01:45:27;10.40;99.90
52459;DHT22;38372;52.902;6.024;2022-09-16T01:54:02;10.50;99.90
52459;DHT22;38372;52.902;6.024;2022-09-16T01:59:33;10.60;99.90
52459;DHT22;38372;52.902;6.024;2022-09-16T02:02:23;10.60;99.90
52459;DHT22;38372;52.902;6.024;2022-09-16T02:04:56;10.60;99.90
52459;DHT22;38372;52.902;6.024;2022-09-16T02:07:30;10.60;99.90
52459;DHT22;38372;52.902;6.024;2022-09-16T02:10:19;10.50;99.90
52459;DHT22;38372;52.902;6.024;2022-09-16T02:12:47;10.50;99.90
52459;DHT22;38372;52.902;6.024;2022-09-16T02:15:17;10.40;99.90
52459;DHT22;38372;52.902;6.024;2022-09-16T02:17:50;10.30;99.90
52459;DHT22;38372;52.902;6.024;2022-09-16T02:20:29;10.20;99.90
52459;DHT22;38372;52.902;6.024;2022-09-16T02:23:04;10.20;99.90
52459;DHT22;38372;52.902;6.024;2022-09-16T02:25:34;10.10;99.90
52459;DHT22;38372;52.902;6.024;2022-09-16T02:28:06;10.00;99.90
52459;DHT22;38372;52.902;6.024;2022-09-16T02:30:42;10.00;99.90
52459;DHT22;38372;52.902;6.024;2022-09-16T02:33:11;9.90;99.90
52459;DHT22;38372;52.902;6.024;2022-09-16T02:35:38;9.90;99.90
52459;DHT22;38372;52.902;6.024;2022-09-16T02:38:16;9.90;99.90
52459;DHT22;38372;52.902;6.024;2022-09-16T02:40:59;9.90;99.90
52459;DHT22;38372;52.902;6.024;2022-09-16T02:43:26;9.90;99.90
52459;DHT22;38372;52.902;6.024;2022-09-16T02:49:25;9.90;99.90
52459;DHT22;38372;52.902;6.024;2022-09-16T02:52:16;9.80;99.90
52459;DHT22;38372;52.902;6.024;2022-09-16T02:57:20;9.70;99.90
52459;DHT22;38372;52.902;6.024;2022-09-16T02:59:46;9.70;99.90
52459;DHT22;38372;52.902;6.024;2022-09-16T03:02:13;9.60;99.90
52459;DHT22;38372;52.902;6.024;2022-09-16T03:04:38;9.60;99.90
52459;DHT22;38372;52.902;6.024;2022-09-16T03:07:07;9.50;99.90
52459;DHT22;38372;52.902;6.024;2022-09-16T03:09:35;9.50;99.90
52459;DHT22;38372;52.902;6.024;2022-09-16T03:26:10;9.50;99.90
52459;DHT22;38372;52.902;6.024;2022-09-16T03:34:05;9.60;99.90
52459;DHT22;38372;52.902;6.024;2022-09-16T03:36:38;9.60;99.90
52459;DHT22;38372;52.902;6.024;2022-09-16T03:39:05;9.60;99.90
52459;DHT22;38372;52.902;6.024;2022-09-16T03:41:32;9.50;99.90
52459;DHT22;38372;52.902;6.024;2022-09-16T03:43:59;9.50;99.90
52459;DHT22;38372;52.902;6.024;2022-09-16T03:46:26;9.50;99.90
52459;DHT22;38372;52.902;6.024;2022-09-16T03:48:54;9.50;99.90
52459;DHT22;38372;52.902;6.024;2022-09-16T03:51:20;9.40;99.90
52459;DHT22;38372;52.902;6.024;2022-09-16T03:53:46;9.50;99.90
52459;DHT22;38372;52.902;6.024;2022-09-16T03:56:12;9.40;99.90
52459;DHT22;38372;52.902;6.024;2022-09-16T03:58:38;9.40;99.90
52459;DHT22;38372;52.902;6.024;2022-09-16T04:01:04;9.40;99.90
52459;DHT22;38372;52.902;6.024;2022-09-16T04:03:30;9.40;99.90
52459;DHT22;38372;52.902;6.024;2022-09-16T04:05:56;9.40;99.90
52459;DHT22;38372;52.902;6.024;2022-09-16T04:08:22;9.40;99.90
52459;DHT22;38372;52.902;6.024;2022-09-16T04:11:03;9.40;99.90
52459;DHT22;38372;52.902;6.024;2022-09-16T04:13:33;9.30;99.90
52459;DHT22;38372;52.902;6.024;2022-09-16T04:16:00;9.30;99.90
52459;DHT22;38372;52.902;6.024;2022-09-16T04:18:27;9.30;99.90
52459;DHT22;38372;52.902;6.024;2022-09-16T04:20:59;9.20;99.90
52459;DHT22;38372;52.902;6.024;2022-09-16T04:23:26;9.20;99.90
52459;DHT22;38372;52.902;6.024;2022-09-16T04:26:02;9.20;99.90
52459;DHT22;38372;52.902;6.024;2022-09-16T04:28:29;9.20;99.90
52459;DHT22;38372;52.902;6.024;2022-09-16T04:31:02;9.10;99.90
52459;DHT22;38372;52.902;6.024;2022-09-16T04:33:30;9.10;99.90
52459;DHT22;38372;52.902;6.024;2022-09-16T04:36:07;9.10;99.90
52459;DHT22;38372;52.902;6.024;2022-09-16T04:38:33;9.10;99.90
52459;DHT22;38372;52.902;6.024;2022-09-16T04:43:34;9.00;99.90
52459;DHT22;38372;52.902;6.024;2022-09-16T04:46:00;9.00;99.90
52459;DHT22;38372;52.902;6.024;2022-09-16T04:48:27;9.00;99.90
52459;DHT22;38372;52.902;6.024;2022-09-16T04:50:53;8.90;99.90
52459;DHT22;38372;52.902;6.024;2022-09-16T04:53:20;8.90;99.90
52459;DHT22;38372;52.902;6.024;2022-09-16T04:55:46;8.90;99.90
52459;DHT22;38372;52.902;6.024;2022-09-16T04:58:13;8.90;99.90
52459;DHT22;38372;52.902;6.024;2022-09-16T05:00:39;8.90;99.90
52459;DHT22;38372;52.902;6.024;2022-09-16T05:03:06;8.90;99.90
52459;DHT22;38372;52.902;6.024;2022-09-16T05:05:32;8.90;99.90
52459;DHT22;38372;52.902;6.024;2022-09-16T05:07:58;8.90;99.90
52459;DHT22;38372;52.902;6.024;2022-09-16T05:10:24;8.90;99.90
52459;DHT22;38372;52.902;6.024;2022-09-16T05:12:53;9.00;99.90
52459;DHT22;38372;52.902;6.024;2022-09-16T05:15:20;9.00;99.90
52459;DHT22;38372;52.902;6.024;2022-09-16T05:17:45;8.90;99.90
52459;DHT22;38372;52.902;6.024;2022-09-16T05:20:11;8.90;99.90
52459;DHT22;38372;52.902;6.024;2022-09-16T05:22:38;8.80;99.90
52459;DHT22;38372;52.902;6.024;2022-09-16T05:25:05;8.90;99.90
52459;DHT22;38372;52.902;6.024;2022-09-16T05:27:31;8.90;99.90
52459;DHT22;38372;52.902;6.024;2022-09-16T05:29:57;8.90;99.90
52459;DHT22;38372;52.902;6.024;2022-09-16T05:32:23;8.90;99.90
52459;DHT22;38372;52.902;6.024;2022-09-16T05:34:49;8.90;99.90
52459;DHT22;38372;52.902;6.024;2022-09-16T05:37:16;9.00;99.90
52459;DHT22;38372;52.902;6.024;2022-09-16T05:39:41;9.00;99.90
52459;DHT22;38372;52.902;6.024;2022-09-16T05:42:08;9.00;99.90
52459;DHT22;38372;52.902;6.024;2022-09-16T05:44:34;9.00;99.90
52459;DHT22;38372;52.902;6.024;2022-09-16T05:47:00;9.10;99.90
52459;DHT22;38372;52.902;6.024;2022-09-16T05:49:26;9.10;99.90
52459;DHT22;38372;52.902;6.024;2022-09-16T05:51:53;9.10;99.90
52459;DHT22;38372;52.902;6.024;2022-09-16T05:54:20;9.10;99.90
52459;DHT22;38372;52.902;6.024;2022-09-16T05:56:48;9.10;99.90
52459;DHT22;38372;52.902;6.024;2022-09-16T05:59:15;9.20;99.90
52459;DHT22;38372;52.902;6.024;2022-09-16T06:01:41;9.20;99.90
52459;DHT22;38372;52.902;6.024;2022-09-16T06:04:10;9.30;99.90
52459;DHT22;38372;52.902;6.024;2022-09-16T06:06:41;9.40;99.90
52459;DHT22;38372;52.902;6.024;2022-09-16T06:09:09;9.50;99.90
52459;DHT22;38372;52.902;6.024;2022-09-16T06:11:37;9.70;99.90
52459;DHT22;38372;52.902;6.024;2022-09-16T06:14:04;9.90;99.90
52459;DHT22;38372;52.902;6.024;2022-09-16T06:16:30;10.10;99.90
52459;DHT22;38372;52.902;6.024;2022-09-16T06:19:01;10.50;99.90
52459;DHT22;38372;52.902;6.024;2022-09-16T06:21:27;10.80;99.90
52459;DHT22;38372;52.902;6.024;2022-09-16T06:23:54;11.10;99.90
52459;DHT22;38372;52.902;6.024;2022-09-16T06:26:22;11.60;99.90
52459;DHT22;38372;52.902;6.024;2022-09-16T06:28:49;12.00;99.90
52459;DHT22;38372;52.902;6.024;2022-09-16T06:31:25;12.10;99.90
52459;DHT22;38372;52.902;6.024;2022-09-16T06:33:51;12.10;99.90
52459;DHT22;38372;52.902;6.024;2022-09-16T06:36:28;12.20;99.90
52459;DHT22;38372;52.902;6.024;2022-09-16T06:38:54;12.30;99.90
52459;DHT22;38372;52.902;6.024;2022-09-16T06:41:20;12.30;99.90
52459;DHT22;38372;52.902;6.024;2022-09-16T06:43:48;12.30;99.90
52459;DHT22;38372;52.902;6.024;2022-09-16T06:46:21;12.20;99.90
52459;DHT22;38372;52.902;6.024;2022-09-16T06:48:50;12.00;99.90
52459;DHT22;38372;52.902;6.024;2022-09-16T06:51:27;12.00;99.90
52459;DHT22;38372;52.902;6.024;2022-09-16T06:53:59;11.90;99.90
52459;DHT22;38372;52.902;6.024;2022-09-16T06:56:26;11.80;99.90
52459;DHT22;38372;52.902;6.024;2022-09-16T06:58:52;11.80;99.90
52459;DHT22;38372;52.902;6.024;2022-09-16T07:01:25;11.80;99.90
52459;DHT22;38372;52.902;6.024;2022-09-16T07:03:53;11.90;99.90
52459;DHT22;38372;52.902;6.024;2022-09-16T07:06:20;11.90;99.90
52459;DHT22;38372;52.902;6.024;2022-09-16T07:08:47;11.90;99.90
52459;DHT22;38372;52.902;6.024;2022-09-16T07:11:18;11.90;99.90
52459;DHT22;38372;52.902;6.024;2022-09-16T07:13:46;11.90;99.90
52459;DHT22;38372;52.902;6.024;2022-09-16T07:16:20;11.90;99.90
52459;DHT22;38372;52.902;6.024;2022-09-16T07:19:06;11.90;99.90
52459;DHT22;38372;52.902;6.024;2022-09-16T07:21:33;12.00;99.90
52459;DHT22;38372;52.902;6.024;2022-09-16T07:24:02;12.10;99.90
52459;DHT22;38372;52.902;6.024;2022-09-16T07:26:33;12.20;99.90
52459;DHT22;38372;52.902;6.024;2022-09-16T07:29:01;12.30;99.90
52459;DHT22;38372;52.902;6.024;2022-09-16T07:31:31;12.40;99.90
52459;DHT22;38372;52.902;6.024;2022-09-16T07:33:58;12.60;99.90
52459;DHT22;38372;52.902;6.024;2022-09-16T07:36:28;12.70;99.90
52459;DHT22;38372;52.902;6.024;2022-09-16T07:38:56;12.90;99.90
52459;DHT22;38372;52.902;6.024;2022-09-16T07:41:25;13.00;99.90
52459;DHT22;38372;52.902;6.024;2022-09-16T07:43:56;13.10;99.90
52459;DHT22;38372;52.902;6.024;2022-09-16T07:46:25;13.30;99.90
52459;DHT22;38372;52.902;6.024;2022-09-16T07:48:52;13.50;99.90
52459;DHT22;38372;52.902;6.024;2022-09-16T07:51:24;13.60;99.90
52459;DHT22;38372;52.902;6.024;2022-09-16T07:54:02;13.70;99.90
52459;DHT22;38372;52.902;6.024;2022-09-16T07:56:31;13.80;99.90
52459;DHT22;38372;52.902;6.024;2022-09-16T07:58:59;13.90;99.90
52459;DHT22;38372;52.902;6.024;2022-09-16T08:01:26;14.10;99.90
52459;DHT22;38372;52.902;6.024;2022-09-16T08:03:52;14.20;99.90
52459;DHT22;38372;52.902;6.024;2022-09-16T08:06:22;14.40;99.90
52459;DHT22;38372;52.902;6.024;2022-09-16T08:08:51;14.50;99.90
52459;DHT22;38372;52.902;6.024;2022-09-16T08:11:20;14.80;99.90
52459;DHT22;38372;52.902;6.024;2022-09-16T08:13:46;15.20;99.90
52459;DHT22;38372;52.902;6.024;2022-09-16T08:16:17;15.70;99.90
52459;DHT22;38372;52.902;6.024;2022-09-16T08:18:45;15.80;99.90
52459;DHT22;38372;52.902;6.024;2022-09-16T08:21:16;15.50;99.90
52459;DHT22;38372;52.902;6.024;2022-09-16T08:23:43;15.20;99.90
52459;DHT22;38372;52.902;6.024;2022-09-16T08:26:10;15.20;99.90
52459;DHT22;38372;52.902;6.024;2022-09-16T08:28:39;15.30;99.90
52459;DHT22;38372;52.902;6.024;2022-09-16T08:31:06;15.30;99.90
52459;DHT22;38372;52.902;6.024;2022-09-16T08:33:32;15.60;99.90
52459;DHT22;38372;52.902;6.024;2022-09-16T08:36:05;16.10;99.90
52459;DHT22;38372;52.902;6.024;2022-09-16T08:38:33;16.50;99.90
52459;DHT22;38372;52.902;6.024;2022-09-16T08:52:01;18.70;99.90
52459;DHT22;38372;52.902;6.024;2022-09-16T08:54:45;19.00;99.90
52459;DHT22;38372;52.902;6.024;2022-09-16T08:57:17;19.10;99.90
52459;DHT22;38372;52.902;6.024;2022-09-16T08:59:50;19.20;99.90
52459;DHT22;38372;52.902;6.024;2022-09-16T09:02:37;19.20;99.90
52459;DHT22;38372;52.902;6.024;2022-09-16T09:08:39;19.20;99.90
52459;DHT22;38372;52.902;6.024;2022-09-16T09:11:26;19.30;99.90
52459;DHT22;38372;52.902;6.024;2022-09-16T09:25:44;18.30;99.10
52459;DHT22;38372;52.902;6.024;2022-09-16T09:34:54;18.50;99.90
52459;DHT22;38372;52.902;6.024;2022-09-16T09:40:16;19.90;98.50
52459;DHT22;38372;52.902;6.024;2022-09-16T09:43:23;20.30;97.00
52459;DHT22;38372;52.902;6.024;2022-09-16T09:48:48;20.80;94.40
52459;DHT22;38372;52.902;6.024;2022-09-16T09:51:35;20.80;91.50
52459;DHT22;38372;52.902;6.024;2022-09-16T10:00:03;18.80;93.20
52459;DHT22;38372;52.902;6.024;2022-09-16T10:02:40;17.80;94.90
52459;DHT22;38372;52.902;6.024;2022-09-16T10:05:27;17.80;96.20
52459;DHT22;38372;52.902;6.024;2022-09-16T10:08:18;18.30;95.20
52459;DHT22;38372;52.902;6.024;2022-09-16T10:10:52;18.80;95.00
52459;DHT22;38372;52.902;6.024;2022-09-16T10:13:20;19.30;94.10
52459;DHT22;38372;52.902;6.024;2022-09-16T10:15:47;19.50;93.20
52459;DHT22;38372;52.902;6.024;2022-09-16T10:18:30;19.70;93.50
52459;DHT22;38372;52.902;6.024;2022-09-16T10:23:25;20.30;92.00
52459;DHT22;38372;52.902;6.024;2022-09-16T10:26:19;20.00;90.60
52459;DHT22;38372;52.902;6.024;2022-09-16T10:29:21;20.00;92.30
52459;DHT22;38372;52.902;6.024;2022-09-16T10:31:47;20.20;91.10
52459;DHT22;38372;52.902;6.024;2022-09-16T10:34:42;20.10;91.30
52459;DHT22;38372;52.902;6.024;2022-09-16T10:39:39;19.80;92.20
52459;DHT22;38372;52.902;6.024;2022-09-16T10:42:22;19.80;90.20
52459;DHT22;38372;52.902;6.024;2022-09-16T10:44:51;19.90;89.90
52459;DHT22;38372;52.902;6.024;2022-09-16T10:47:22;20.00;86.30
52459;DHT22;38372;52.902;6.024;2022-09-16T10:49:51;20.20;88.10
52459;DHT22;38372;52.902;6.024;2022-09-16T10:52:22;20.50;88.30
52459;DHT22;38372;52.902;6.024;2022-09-16T10:54:48;20.70;88.70
52459;DHT22;38372;52.902;6.024;2022-09-16T10:57:29;20.80;90.10
52459;DHT22;38372;52.902;6.024;2022-09-16T11:00:11;20.50;88.00
52459;DHT22;38372;52.902;6.024;2022-09-16T11:11:42;19.70;91.60
52459;DHT22;38372;52.902;6.024;2022-09-16T11:17:48;18.90;89.10
52459;DHT22;38372;52.902;6.024;2022-09-16T11:34:19;18.20;90.30
52459;DHT22;38372;52.902;6.024;2022-09-16T11:42:38;18.00;91.10
52459;DHT22;38372;52.902;6.024;2022-09-16T11:45:30;18.20;91.30
52459;DHT22;38372;52.902;6.024;2022-09-16T11:56:50;17.30;95.50
52459;DHT22;38372;52.902;6.024;2022-09-16T11:59:26;16.80;99.50
52459;DHT22;38372;52.902;6.024;2022-09-16T12:04:41;17.00;99.90
52459;DHT22;38372;52.902;6.024;2022-09-16T12:07:36;17.30;99.90
52459;DHT22;38372;52.902;6.024;2022-09-16T12:10:56;17.50;99.90
52459;DHT22;38372;52.902;6.024;2022-09-16T12:13:28;17.20;98.00
52459;DHT22;38372;52.902;6.024;2022-09-16T12:16:04;17.20;99.20
52459;DHT22;38372;52.902;6.024;2022-09-16T12:18:48;17.60;98.80
52459;DHT22;38372;52.902;6.024;2022-09-16T12:23:50;18.20;96.40
52459;DHT22;38372;52.902;6.024;2022-09-16T12:26:40;18.20;94.10
52459;DHT22;38372;52.902;6.024;2022-09-16T12:29:40;17.80;93.70
52459;DHT22;38372;52.902;6.024;2022-09-16T12:32:34;17.40;95.50
52459;DHT22;38372;52.902;6.024;2022-09-16T12:35:11;16.70;98.50
52459;DHT22;38372;52.902;6.024;2022-09-16T12:37:44;16.10;99.90
52459;DHT22;38372;52.902;6.024;2022-09-16T12:40:25;15.80;99.90
52459;DHT22;38372;52.902;6.024;2022-09-16T12:51:21;16.30;99.90
52459;DHT22;38372;52.902;6.024;2022-09-16T12:57:13;17.00;99.90
52459;DHT22;38372;52.902;6.024;2022-09-16T13:02:36;17.30;99.90
52459;DHT22;38372;52.902;6.024;2022-09-16T13:07:53;17.80;98.40
52459;DHT22;38372;52.902;6.024;2022-09-16T13:10:29;17.80;97.30
52459;DHT22;38372;52.902;6.024;2022-09-16T13:12:58;17.80;96.40
52459;DHT22;38372;52.902;6.024;2022-09-16T13:15:37;17.90;95.40
52459;DHT22;38372;52.902;6.024;2022-09-16T13:18:23;17.90;95.20
52459;DHT22;38372;52.902;6.024;2022-09-16T13:21:25;17.90;94.40
52459;DHT22;38372;52.902;6.024;2022-09-16T13:23:59;17.90;95.60
52459;DHT22;38372;52.902;6.024;2022-09-16T13:26:40;18.00;95.40
52459;DHT22;38372;52.902;6.024;2022-09-16T13:31:53;18.00;95.70
52459;DHT22;38372;52.902;6.024;2022-09-16T13:34:19;18.00;96.00
52459;DHT22;38372;52.902;6.024;2022-09-16T13:36:46;17.80;95.40
52459;DHT22;38372;52.902;6.024;2022-09-16T13:39:14;17.60;95.40
52459;DHT22;38372;52.902;6.024;2022-09-16T13:41:45;17.40;95.70
52459;DHT22;38372;52.902;6.024;2022-09-16T13:49:43;17.10;95.60
52459;DHT22;38372;52.902;6.024;2022-09-16T13:52:12;17.10;95.40
52459;DHT22;38372;52.902;6.024;2022-09-16T13:54:45;17.10;95.30
52459;DHT22;38372;52.902;6.024;2022-09-16T14:13:23;17.20;95.70
52459;DHT22;38372;52.902;6.024;2022-09-16T14:15:52;17.20;95.30
52459;DHT22;38372;52.902;6.024;2022-09-16T14:18:29;17.00;95.00
52459;DHT22;38372;52.902;6.024;2022-09-16T14:20:59;16.90;95.00
52459;DHT22;38372;52.902;6.024;2022-09-16T14:23:29;16.80;94.80
52459;DHT22;38372;52.902;6.024;2022-09-16T14:25:55;16.80;95.10
52459;DHT22;38372;52.902;6.024;2022-09-16T14:28:24;16.90;95.60
52459;DHT22;38372;52.902;6.024;2022-09-16T14:30:54;16.90;95.40
52459;DHT22;38372;52.902;6.024;2022-09-16T14:33:36;17.00;95.00
52459;DHT22;38372;52.902;6.024;2022-09-16T14:36:33;17.10;93.60
52459;DHT22;38372;52.902;6.024;2022-09-16T14:39:00;17.10;92.50
52459;DHT22;38372;52.902;6.024;2022-09-16T14:47:03;16.90;92.80
52459;DHT22;38372;52.902;6.024;2022-09-16T14:49:35;16.80;93.00
52459;DHT22;38372;52.902;6.024;2022-09-16T14:52:01;16.70;93.80
52459;DHT22;38372;52.902;6.024;2022-09-16T14:54:29;16.60;94.90
52459;DHT22;38372;52.902;6.024;2022-09-16T14:57:02;16.50;95.20
52459;DHT22;38372;52.902;6.024;2022-09-16T14:59:35;16.50;95.30
52459;DHT22;38372;52.902;6.024;2022-09-16T15:02:12;16.40;95.20
52459;DHT22;38372;52.902;6.024;2022-09-16T15:04:46;16.40;95.80
52459;DHT22;38372;52.902;6.024;2022-09-16T15:07:22;16.40;95.90
52459;DHT22;38372;52.902;6.024;2022-09-16T15:10:24;16.40;96.50
52459;DHT22;38372;52.902;6.024;2022-09-16T15:13:03;16.20;96.80
52459;DHT22;38372;52.902;6.024;2022-09-16T15:15:34;16.00;98.70
52459;DHT22;38372;52.902;6.024;2022-09-16T15:18:23;15.80;99.90
52459;DHT22;38372;52.902;6.024;2022-09-16T15:20:58;15.40;99.90
52459;DHT22;38372;52.902;6.024;2022-09-16T15:23:26;15.00;99.90
52459;DHT22;38372;52.902;6.024;2022-09-16T15:26:08;14.40;99.90
52459;DHT22;38372;52.902;6.024;2022-09-16T15:28:36;14.00;99.90
52459;DHT22;38372;52.902;6.024;2022-09-16T15:31:01;13.60;99.90
52459;DHT22;38372;52.902;6.024;2022-09-16T15:33:38;13.30;99.90
52459;DHT22;38372;52.902;6.024;2022-09-16T15:36:05;13.10;99.90
52459;DHT22;38372;52.902;6.024;2022-09-16T15:38:32;13.00;99.90
52459;DHT22;38372;52.902;6.024;2022-09-16T15:41:11;12.90;99.90
52459;DHT22;38372;52.902;6.024;2022-09-16T15:43:40;12.90;99.90
52459;DHT22;38372;52.902;6.024;2022-09-16T15:46:23;12.90;99.90
52459;DHT22;38372;52.902;6.024;2022-09-16T15:49:00;12.80;99.90
52459;DHT22;38372;52.902;6.024;2022-09-16T15:57:00;12.80;99.90
52459;DHT22;38372;52.902;6.024;2022-09-16T16:02:01;12.80;99.90
52459;DHT22;38372;52.902;6.024;2022-09-16T16:04:31;12.80;99.90
52459;DHT22;38372;52.902;6.024;2022-09-16T16:06:58;12.80;99.90
52459;DHT22;38372;52.902;6.024;2022-09-16T16:11:54;12.70;99.90
52459;DHT22;38372;52.902;6.024;2022-09-16T16:14:21;12.60;99.90
52459;DHT22;38372;52.902;6.024;2022-09-16T16:16:48;12.50;99.90
52459;DHT22;38372;52.902;6.024;2022-09-16T16:19:14;12.40;99.90
52459;DHT22;38372;52.902;6.024;2022-09-16T16:21:40;12.30;99.90
52459;DHT22;38372;52.902;6.024;2022-09-16T16:24:09;12.30;99.90
52459;DHT22;38372;52.902;6.024;2022-09-16T16:26:34;12.20;99.90
52459;DHT22;38372;52.902;6.024;2022-09-16T16:29:00;12.20;99.90
52459;DHT22;38372;52.902;6.024;2022-09-16T16:31:26;12.20;99.90
52459;DHT22;38372;52.902;6.024;2022-09-16T16:33:52;12.10;99.90
52459;DHT22;38372;52.902;6.024;2022-09-16T16:36:19;12.20;99.90
52459;DHT22;38372;52.902;6.024;2022-09-16T16:38:46;12.10;99.90
52459;DHT22;38372;52.902;6.024;2022-09-16T16:41:22;12.10;99.90
52459;DHT22;38372;52.902;6.024;2022-09-16T16:43:49;12.10;99.90
52459;DHT22;38372;52.902;6.024;2022-09-16T16:46:16;12.00;99.90
52459;DHT22;38372;52.902;6.024;2022-09-16T16:48:43;12.10;99.90
52459;DHT22;38372;52.902;6.024;2022-09-16T16:51:11;12.10;99.90
52459;DHT22;38372;52.902;6.024;2022-09-16T16:53:37;12.10;99.90
52459;DHT22;38372;52.902;6.024;2022-09-16T16:56:07;12.10;99.90
52459;DHT22;38372;52.902;6.024;2022-09-16T16:58:35;12.10;99.90
52459;DHT22;38372;52.902;6.024;2022-09-16T17:01:12;12.20;99.90
52459;DHT22;38372;52.902;6.024;2022-09-16T17:03:39;12.20;99.90
52459;DHT22;38372;52.902;6.024;2022-09-16T17:06:05;12.20;99.90
52459;DHT22;38372;52.902;6.024;2022-09-16T17:08:32;12.30;99.90
52459;DHT22;38372;52.902;6.024;2022-09-16T17:11:13;12.30;99.90
52459;DHT22;38372;52.902;6.024;2022-09-16T17:13:42;12.30;99.90
52459;DHT22;38372;52.902;6.024;2022-09-16T17:16:09;12.40;99.90
52459;DHT22;38372;52.902;6.024;2022-09-16T17:18:37;12.30;99.90
52459;DHT22;38372;52.902;6.024;2022-09-16T17:21:06;12.40;99.90
52459;DHT22;38372;52.902;6.024;2022-09-16T17:23:32;12.40;99.90
52459;DHT22;38372;52.902;6.024;2022-09-16T17:25:58;12.40;99.90
52459;DHT22;38372;52.902;6.024;2022-09-16T17:28:24;12.40;99.90
52459;DHT22;38372;52.902;6.024;2022-09-16T17:30:50;12.40;99.90
52459;DHT22;38372;52.902;6.024;2022-09-16T17:33:15;12.50;99.90
52459;DHT22;38372;52.902;6.024;2022-09-16T17:35:41;12.50;99.90
52459;DHT22;38372;52.902;6.024;2022-09-16T17:38:08;12.50;99.90
52459;DHT22;38372;52.902;6.024;2022-09-16T17:40:34;12.50;99.90
52459;DHT22;38372;52.902;6.024;2022-09-16T17:43:00;12.60;99.90
52459;DHT22;38372;52.902;6.024;2022-09-16T17:45:26;12.60;99.90
52459;DHT22;38372;52.902;6.024;2022-09-16T17:47:52;12.60;99.90
52459;DHT22;38372;52.902;6.024;2022-09-16T17:50:18;12.60;99.90
52459;DHT22;38372;52.902;6.024;2022-09-16T17:52:44;12.60;99.90
52459;DHT22;38372;52.902;6.024;2022-09-16T17:55:10;12.60;99.90
52459;DHT22;38372;52.902;6.024;2022-09-16T17:57:37;12.60;99.90
52459;DHT22;38372;52.902;6.024;2022-09-16T18:00:04;12.60;99.90
52459;DHT22;38372;52.902;6.024;2022-09-16T18:02:30;12.60;99.90
52459;DHT22;38372;52.902;6.024;2022-09-16T18:04:56;12.60;99.90
52459;DHT22;38372;52.902;6.024;2022-09-16T18:07:22;12.60;99.90
52459;DHT22;38372;52.902;6.024;2022-09-16T18:09:48;12.60;99.90
52459;DHT22;38372;52.902;6.024;2022-09-16T18:12:13;12.60;99.90
52459;DHT22;38372;52.902;6.024;2022-09-16T18:14:39;12.50;99.90
52459;DHT22;38372;52.902;6.024;2022-09-16T18:17:05;12.40;99.90
52459;DHT22;38372;52.902;6.024;2022-09-16T18:19:31;12.40;99.90
52459;DHT22;38372;52.902;6.024;2022-09-16T18:21:57;12.30;99.90
52459;DHT22;38372;52.902;6.024;2022-09-16T18:24:23;12.30;99.90
52459;DHT22;38372;52.902;6.024;2022-09-16T18:26:48;12.20;99.90
52459;DHT22;38372;52.902;6.024;2022-09-16T18:29:14;12.20;99.90
52459;DHT22;38372;52.902;6.024;2022-09-16T18:31:46;12.20;99.90
52459;DHT22;38372;52.902;6.024;2022-09-16T18:34:13;12.20;99.90
52459;DHT22;38372;52.902;6.024;2022-09-16T18:36:39;12.10;99.90
52459;DHT22;38372;52.902;6.024;2022-09-16T18:39:09;12.10;99.90
52459;DHT22;38372;52.902;6.024;2022-09-16T18:41:37;12.10;99.90
52459;DHT22;38372;52.902;6.024;2022-09-16T18:44:06;12.00;99.90
52459;DHT22;38372;52.902;6.024;2022-09-16T18:46:36;12.00;99.90
52459;DHT22;38372;52.902;6.024;2022-09-16T18:49:03;11.90;99.90
52459;DHT22;38372;52.902;6.024;2022-09-16T18:51:34;11.80;99.90
52459;DHT22;38372;52.902;6.024;2022-09-16T18:54:03;11.80;99.90
52459;DHT22;38372;52.902;6.024;2022-09-16T18:56:31;11.80;99.90
52459;DHT22;38372;52.902;6.024;2022-09-16T18:59:14;11.70;99.90
52459;DHT22;38372;52.902;6.024;2022-09-16T19:01:41;11.70;99.90
52459;DHT22;38372;52.902;6.024;2022-09-16T19:04:11;11.60;99.90
52459;DHT22;38372;52.902;6.024;2022-09-16T19:06:43;11.60;99.90
52459;DHT22;38372;52.902;6.024;2022-09-16T19:09:11;11.60;99.90
52459;DHT22;38372;52.902;6.024;2022-09-16T19:11:38;11.60;99.90
52459;DHT22;38372;52.902;6.024;2022-09-16T19:14:05;11.60;99.90
52459;DHT22;38372;52.902;6.024;2022-09-16T19:16:35;11.50;99.90
52459;DHT22;38372;52.902;6.024;2022-09-16T19:19:01;11.50;99.90
52459;DHT22;38372;52.902;6.024;2022-09-16T19:21:28;11.50;99.90
52459;DHT22;38372;52.902;6.024;2022-09-16T19:23:59;11.50;99.90
52459;DHT22;38372;52.902;6.024;2022-09-16T19:26:34;11.50;99.90
52459;DHT22;38372;52.902;6.024;2022-09-16T19:29:00;11.50;99.90
52459;DHT22;38372;52.902;6.024;2022-09-16T19:31:27;11.50;99.90
52459;DHT22;38372;52.902;6.024;2022-09-16T19:33:57;11.50;99.90